LIBP/PSR METAR and TAF weather

Enter ICAO airport designator
Station Type Date Time Source
LIBP METAR 2021/10/20 06:20 UTC NOAA

LIBP 200620Z AUTO 21002KT 9999 NCD 09/08 Q1027


Station Type Date Time Source
LIBP Decoded METAR 2021/10/20 06:20 UTC NOAA

Pescara, Italy (LIBP) 42-26N 014-12E 11M
Oct 20, 2021 - 02:20 AM EDT / 2021.10.20 0620 UTC
Wind: from the SSW (210 degrees) at 2 MPH (2 KT):0
Visibility: greater than 7 mile(s):0
Temperature: 48 F (9 C)
Dew Point: 46 F (8 C)
Relative Humidity: 93%
Pressure (altimeter): 30.33 in. Hg (1027 hPa)
ob: LIBP 200620Z AUTO 21002KT 9999 NCD 09/08 Q1027
cycle: 6

Station Type Date Time Source
LIBP TAF 2021/10/20 06:24 UTC NOAA

TAF LIBP 200500Z 2006/2106 VRB05KT 9999 FEW035
BECMG 2010/2012 08010KT
BECMG 2016/2019 VRB05KT

Example: see airport list